createdAt,value
2019-03-28T00:01:58.976Z,8.33
2019-03-28T00:17:00.521Z,7.90
2019-03-28T00:26:06.642Z,7.87
2019-03-28T00:31:57.107Z,8.38
2019-03-28T00:34:41.580Z,6.83
2019-03-28T00:37:29.955Z,8.85
2019-03-28T00:40:15.873Z,9.73
2019-03-28T00:43:02.769Z,7.90
2019-03-28T00:45:40.664Z,9.05
2019-03-28T00:48:27.131Z,8.93
2019-03-28T00:51:25.104Z,8.70
2019-03-28T00:54:27.991Z,7.55
2019-03-28T00:57:05.608Z,9.08
2019-03-28T01:12:07.238Z,6.92
2019-03-28T01:14:57.698Z,9.70
2019-03-28T01:17:46.568Z,8.80
2019-03-28T01:20:30.614Z,7.87
2019-03-28T01:23:10.359Z,12.47
2019-03-28T01:25:59.520Z,7.70
2019-03-28T01:31:39.815Z,8.28
2019-03-28T01:34:25.131Z,7.53
2019-03-28T01:37:08.564Z,11.08
2019-03-28T01:49:09.637Z,9.83
2019-03-28T01:57:50.437Z,8.03
2019-03-28T02:03:35.920Z,7.28
2019-03-28T02:06:18.345Z,12.05
2019-03-28T02:12:11.389Z,7.72
2019-03-28T02:14:56.642Z,7.08
2019-03-28T02:17:49.555Z,8.10
2019-03-28T02:20:32.070Z,8.43
2019-03-28T02:23:23.301Z,7.50
2019-03-28T02:25:59.269Z,8.05
2019-03-28T02:28:41.582Z,8.73
2019-03-28T02:49:35.776Z,9.93
2019-03-28T03:07:16.610Z,11.73
2019-03-28T03:22:06.711Z,11.30
2019-03-28T03:25:05.358Z,10.38
2019-03-28T03:27:58.338Z,11.28
2019-03-28T03:40:05.836Z,9.00
2019-03-28T03:46:08.309Z,12.10
2019-03-28T04:07:08.445Z,12.63
2019-03-28T04:26:44.481Z,11.60
2019-03-28T04:57:13.110Z,9.75
2019-03-28T05:00:00.430Z,11.55
2019-03-28T05:09:32.682Z,13.78
2019-03-28T05:18:27.087Z,16.45
2019-03-28T05:21:26.747Z,20.65
2019-03-28T05:31:00.661Z,17.05
2019-03-28T05:40:08.099Z,18.05
2019-03-28T05:51:53.970Z,58.05
2019-03-28T14:43:17.975Z,4.33
2019-03-28T14:45:53.926Z,2.60
2019-03-28T14:48:33.143Z,3.80
2019-03-28T14:54:29.634Z,5.25
2019-03-28T14:57:19.815Z,6.03
2019-03-28T14:59:57.452Z,4.05
2019-03-28T15:02:39.046Z,3.50
2019-03-28T15:05:25.238Z,3.70
2019-03-28T15:08:04.579Z,4.42
2019-03-28T15:13:54.097Z,3.17
2019-03-28T15:16:33.715Z,3.27
2019-03-28T15:19:12.754Z,2.65
2019-03-28T15:21:50.301Z,4.05
2019-03-28T15:24:27.628Z,3.12
2019-03-28T15:27:02.992Z,3.72
2019-03-28T15:29:41.173Z,3.00
2019-03-28T15:32:17.452Z,3.98
2019-03-28T15:34:56.002Z,3.42
2019-03-28T15:37:34.453Z,2.83
2019-03-28T15:40:14.435Z,4.87
2019-03-28T15:42:51.902Z,5.53
2019-03-28T15:45:30.441Z,5.85
2019-03-28T15:48:06.166Z,2.52
2019-03-28T15:50:45.580Z,3.35
2019-03-28T15:53:19.517Z,2.70
2019-03-28T15:55:58.976Z,5.03
2019-03-28T15:58:38.840Z,3.12
2019-03-28T16:01:22.056Z,5.42
2019-03-28T16:04:03.118Z,4.30
2019-03-28T16:06:42.798Z,2.95
2019-03-28T16:09:20.576Z,3.62
2019-03-28T16:12:02.725Z,3.30
2019-03-28T16:14:42.706Z,3.37
2019-03-28T16:17:23.004Z,6.78
2019-03-28T16:20:00.381Z,8.88
2019-03-28T16:22:38.440Z,7.47
2019-03-28T16:25:21.391Z,5.50
2019-03-28T16:28:03.079Z,5.05
2019-03-28T16:30:41.174Z,3.02
2019-03-28T17:02:34.459Z,3.67
2019-03-28T17:18:14.219Z,10.95
2019-03-28T17:23:59.047Z,5.92
2019-03-28T17:26:45.542Z,5.60
2019-03-28T17:29:36.049Z,29.50
2019-03-28T17:32:26.707Z,26.33
2019-03-28T17:35:15.132Z,15.70
2019-03-28T17:38:05.634Z,8.75
2019-03-28T17:40:45.286Z,29.75
2019-03-28T17:43:20.479Z,32.67
2019-03-28T17:56:05.653Z,35.05
2019-03-28T17:58:54.053Z,26.05
2019-03-28T18:01:40.058Z,25.05
2019-03-28T18:04:30.213Z,19.82
2019-03-28T18:10:22.072Z,15.70
2019-03-28T18:16:07.567Z,47.23
2019-03-28T18:28:12.758Z,30.27
2019-03-28T18:31:05.363Z,26.30
2019-03-28T18:33:46.986Z,13.45
2019-03-28T18:39:35.143Z,17.40
2019-03-28T18:45:22.634Z,35.30
2019-03-28T18:47:59.133Z,23.75
2019-03-28T18:50:42.759Z,15.25
2019-03-28T18:53:19.850Z,14.23
2019-03-28T18:55:58.549Z,23.75
2019-03-28T18:58:38.043Z,25.40
2019-03-28T19:01:17.192Z,25.60
2019-03-28T19:04:01.756Z,31.68
2019-03-28T19:06:39.696Z,34.67
2019-03-28T19:09:19.618Z,62.90
2019-03-28T19:11:59.018Z,80.38
2019-03-28T19:14:40.061Z,31.55
2019-03-28T19:17:20.282Z,27.42
2019-03-28T19:19:59.572Z,38.80
2019-03-28T19:22:33.927Z,23.55
2019-03-28T19:25:12.055Z,24.57
2019-03-28T19:27:51.742Z,19.75
2019-03-28T19:30:38.700Z,31.30
2019-03-28T19:33:14.721Z,23.02
2019-03-28T19:35:48.640Z,21.30
2019-03-28T19:38:24.441Z,22.35
2019-03-28T19:40:58.917Z,18.17
2019-03-28T19:43:35.578Z,25.88
2019-03-28T19:46:15.312Z,29.67
2019-03-28T19:48:48.465Z,31.68
2019-03-28T19:51:28.145Z,29.85
2019-03-28T19:54:07.367Z,30.30
2019-03-28T19:56:49.717Z,31.50
2019-03-28T19:59:23.186Z,35.05
2019-03-28T20:02:00.661Z,32.08
2019-03-28T20:04:37.620Z,33.25
2019-03-28T20:07:21.381Z,36.03
2019-03-28T20:09:50.024Z,31.30
2019-03-28T20:12:31.139Z,34.33
2019-03-28T20:15:11.685Z,30.40
2019-03-28T20:17:50.647Z,32.73
2019-03-28T20:20:33.699Z,25.25
2019-03-28T20:23:14.274Z,34.80
2019-03-28T20:25:47.598Z,24.43
2019-03-28T20:28:29.558Z,29.67
2019-03-28T20:31:07.083Z,23.45
2019-03-28T20:33:44.477Z,35.17
2019-03-28T20:36:36.858Z,43.02
2019-03-28T20:39:04.135Z,40.30
2019-03-28T20:41:40.101Z,47.00
2019-03-28T20:44:18.964Z,39.45
2019-03-28T20:46:58.662Z,37.08
2019-03-28T20:49:37.135Z,32.73
2019-03-28T20:52:16.052Z,34.20
2019-03-28T20:55:04.357Z,29.05
2019-03-28T20:57:47.086Z,28.92
2019-03-28T21:00:27.921Z,30.65
2019-03-28T21:03:10.650Z,29.50
2019-03-28T21:05:50.641Z,30.95
2019-03-28T21:08:29.329Z,31.57
2019-03-28T21:11:12.593Z,30.23
2019-03-28T21:13:51.844Z,32.80
2019-03-28T21:16:33.698Z,30.65
2019-03-28T21:19:08.217Z,30.27
2019-03-28T21:21:44.462Z,30.23
2019-03-28T21:24:17.886Z,23.65
2019-03-28T21:26:47.741Z,24.92
2019-03-28T21:29:25.609Z,15.70
2019-03-28T21:32:06.150Z,16.93
2019-03-28T21:34:43.598Z,24.05
2019-03-28T21:37:26.123Z,22.48
2019-03-28T21:40:06.896Z,16.90
2019-03-28T21:42:48.960Z,19.32
2019-03-28T21:45:31.375Z,20.75
2019-03-28T21:48:03.761Z,21.85
2019-03-28T21:50:45.421Z,17.90
2019-03-28T21:53:26.336Z,19.27
2019-03-28T21:56:14.006Z,17.80
2019-03-28T21:58:48.631Z,18.82
2019-03-28T22:01:27.690Z,20.40
2019-03-28T22:04:06.219Z,23.35
2019-03-28T22:06:43.641Z,22.82
2019-03-28T22:09:25.555Z,21.80
2019-03-28T22:12:07.978Z,22.02
2019-03-28T22:14:52.272Z,20.53
2019-03-28T22:17:33.268Z,16.10
2019-03-28T22:20:17.820Z,16.20
2019-03-28T22:22:55.054Z,17.67
2019-03-28T22:25:33.283Z,14.55
2019-03-28T22:28:13.269Z,15.70
2019-03-28T22:30:55.728Z,16.20
2019-03-28T22:33:34.485Z,13.58
2019-03-28T22:36:17.914Z,8.38
2019-03-28T22:39:00.958Z,8.53
2019-03-28T22:41:45.513Z,9.60
2019-03-28T22:44:33.645Z,12.40
2019-03-28T22:47:06.336Z,9.50
2019-03-28T22:49:46.742Z,10.55
2019-03-28T22:52:23.722Z,12.70
2019-03-28T22:55:05.166Z,12.23
2019-03-28T22:57:44.856Z,11.18
2019-03-28T23:00:25.705Z,12.80
2019-03-28T23:03:08.091Z,19.52
2019-03-28T23:05:47.350Z,24.60
2019-03-28T23:08:23.247Z,26.17
2019-03-28T23:13:42.977Z,29.77
2019-03-28T23:16:20.834Z,35.60
2019-03-28T23:19:05.949Z,35.75
2019-03-28T23:21:45.755Z,25.80
2019-03-28T23:24:20.602Z,17.95
2019-03-28T23:26:51.954Z,17.17
2019-03-28T23:29:31.373Z,15.90
2019-03-28T23:32:08.636Z,15.88
2019-03-28T23:34:51.755Z,14.47
2019-03-28T23:37:32.583Z,13.28
2019-03-28T23:40:11.460Z,15.05
2019-03-28T23:42:51.497Z,14.30
2019-03-28T23:45:33.959Z,16.15
2019-03-28T23:48:13.774Z,18.67
2019-03-28T23:50:50.489Z,26.55
2019-03-28T23:53:29.114Z,19.60
2019-03-28T23:56:15.737Z,18.98
2019-03-28T23:59:03.870Z,27.05
